IDI weather

Indiana County/Jimmy Stewart Fld/ Airport
Indiana, Pennsylvania, United States

Public forecast

Using degrees Fahrenheit for public forecast. Weather courtesy of forecast.io.

METAR (pilot weather report)

Retrieved 2019/07/21 08:35 UTC (0 seconds ago):

KIDI 210835Z AUTO 27005KT 7SM FEW046 24/24 A2997 RMK A01

TAF (pilot weather forecast)

Closest forecast is John Murtha Johnstown Cambria County Airport, 22.7 nm (42.0 km) SSE. Retrieved 2019/07/21 06:42 UTC (2 hours ago):

TAF KJST 210539Z 2106/2206 23005KT P6SM SCT045 TEMPO 2110/2112 BKN015 FM211400 26008KT P6SM BKN035 FM211700 27010KT P6SM VCSH BKN040 FM220100 29007KT P6SM VCSH BKN035